Huntington, New York
Current Conditions -  °F | °C
As of 6:53 AM on Thursday 23 Oct 2014 (Local Time) from KFRG Reporting Station
Overcast Overcast  
Wind Chill: 52°   Ceiling: 2300
Heat Index: 52°   Visibility: 10mi
Dew Point: 48°   Wind: 16mph
Humidity: 86%   Direction: 360°N
Pressure: 29.65"   Gusts: 22mph
Location:  40.87°N, 73.42°W
Report Text: KFRG 231053Z 36014G19KT 10SM OVC023 11/09 A2965 RMK AO2 RAB0957E30B42E52 SLP042 P0004 T01110089
Loading
Personal Weather Stations






























Interactive Weather Map New forecast layout! Learn more

10-Day Weather Forecast

Advertisements
Track Severe Weather on mobile